sensor_id;sensor_type;location;lat;lon;timestamp;temperature;humidity
20594;DHT22;10455;48.732;10.266;2023-11-19T00:01:38;5.70;99.90
20594;DHT22;10455;48.732;10.266;2023-11-19T00:06:39;5.80;99.90
20594;DHT22;10455;48.732;10.266;2023-11-19T00:11:41;5.90;99.90
20594;DHT22;10455;48.732;10.266;2023-11-19T00:16:45;5.80;99.90
20594;DHT22;10455;48.732;10.266;2023-11-19T00:21:46;5.80;99.90
20594;DHT22;10455;48.732;10.266;2023-11-19T00:26:48;5.90;99.90
20594;DHT22;10455;48.732;10.266;2023-11-19T00:31:52;5.90;99.90
20594;DHT22;10455;48.732;10.266;2023-11-19T00:36:54;6.00;99.90
20594;DHT22;10455;48.732;10.266;2023-11-19T00:41:56;6.00;99.90
20594;DHT22;10455;48.732;10.266;2023-11-19T00:47:00;6.00;99.90
20594;DHT22;10455;48.732;10.266;2023-11-19T00:52:02;6.20;99.90
20594;DHT22;10455;48.732;10.266;2023-11-19T00:57:04;6.10;99.90
20594;DHT22;10455;48.732;10.266;2023-11-19T01:02:07;6.10;99.90
20594;DHT22;10455;48.732;10.266;2023-11-19T01:07:09;6.00;99.90
20594;DHT22;10455;48.732;10.266;2023-11-19T01:12:13;5.90;99.90
20594;DHT22;10455;48.732;10.266;2023-11-19T01:17:16;6.10;99.90
20594;DHT22;10455;48.732;10.266;2023-11-19T01:22:18;6.20;99.90
20594;DHT22;10455;48.732;10.266;2023-11-19T01:27:20;6.10;99.90
20594;DHT22;10455;48.732;10.266;2023-11-19T01:32:23;6.20;99.90
20594;DHT22;10455;48.732;10.266;2023-11-19T01:37:26;6.20;99.90
20594;DHT22;10455;48.732;10.266;2023-11-19T01:42:27;6.30;99.90
20594;DHT22;10455;48.732;10.266;2023-11-19T01:47:31;6.50;99.90
20594;DHT22;10455;48.732;10.266;2023-11-19T01:52:34;6.60;99.90
20594;DHT22;10455;48.732;10.266;2023-11-19T01:57:38;6.70;99.90
20594;DHT22;10455;48.732;10.266;2023-11-19T02:02:43;6.70;99.90
20594;DHT22;10455;48.732;10.266;2023-11-19T02:07:46;6.80;99.90
20594;DHT22;10455;48.732;10.266;2023-11-19T02:12:50;6.70;99.90
20594;DHT22;10455;48.732;10.266;2023-11-19T02:17:54;6.80;99.90
20594;DHT22;10455;48.732;10.266;2023-11-19T02:22:56;6.70;99.90
20594;DHT22;10455;48.732;10.266;2023-11-19T02:28:01;6.80;99.90
20594;DHT22;10455;48.732;10.266;2023-11-19T02:33:03;6.70;99.90
20594;DHT22;10455;48.732;10.266;2023-11-19T02:38:07;6.70;99.90
20594;DHT22;10455;48.732;10.266;2023-11-19T02:43:11;6.60;99.90
20594;DHT22;10455;48.732;10.266;2023-11-19T02:48:13;6.60;99.90
20594;DHT22;10455;48.732;10.266;2023-11-19T02:53:16;6.60;99.90
20594;DHT22;10455;48.732;10.266;2023-11-19T02:58:19;6.70;99.90
20594;DHT22;10455;48.732;10.266;2023-11-19T03:03:24;6.70;99.90
20594;DHT22;10455;48.732;10.266;2023-11-19T03:08:29;6.70;99.90
20594;DHT22;10455;48.732;10.266;2023-11-19T03:13:32;6.70;99.90
20594;DHT22;10455;48.732;10.266;2023-11-19T03:18:34;6.80;99.90
20594;DHT22;10455;48.732;10.266;2023-11-19T03:23:37;6.90;99.90
20594;DHT22;10455;48.732;10.266;2023-11-19T03:28:42;6.80;99.90
20594;DHT22;10455;48.732;10.266;2023-11-19T03:33:43;6.80;99.90
20594;DHT22;10455;48.732;10.266;2023-11-19T03:38:45;6.90;99.90
20594;DHT22;10455;48.732;10.266;2023-11-19T03:43:49;7.00;99.90
20594;DHT22;10455;48.732;10.266;2023-11-19T03:48:51;6.90;99.90
20594;DHT22;10455;48.732;10.266;2023-11-19T03:53:52;6.90;99.90
20594;DHT22;10455;48.732;10.266;2023-11-19T03:58:56;7.20;99.90
20594;DHT22;10455;48.732;10.266;2023-11-19T04:03:58;7.20;99.90
20594;DHT22;10455;48.732;10.266;2023-11-19T04:09:00;7.20;99.90
20594;DHT22;10455;48.732;10.266;2023-11-19T04:14:03;7.10;99.90
20594;DHT22;10455;48.732;10.266;2023-11-19T04:19:05;7.30;99.90
20594;DHT22;10455;48.732;10.266;2023-11-19T04:24:08;7.30;99.90
20594;DHT22;10455;48.732;10.266;2023-11-19T04:29:15;7.40;99.90
20594;DHT22;10455;48.732;10.266;2023-11-19T04:34:17;7.50;99.90
20594;DHT22;10455;48.732;10.266;2023-11-19T04:39:19;7.60;99.90
20594;DHT22;10455;48.732;10.266;2023-11-19T04:44:23;7.70;99.90
20594;DHT22;10455;48.732;10.266;2023-11-19T04:49:25;7.80;99.90
20594;DHT22;10455;48.732;10.266;2023-11-19T04:54:27;7.70;99.90
20594;DHT22;10455;48.732;10.266;2023-11-19T04:59:30;8.10;99.90
20594;DHT22;10455;48.732;10.266;2023-11-19T05:04:34;8.10;99.90
20594;DHT22;10455;48.732;10.266;2023-11-19T05:09:38;8.40;99.90
20594;DHT22;10455;48.732;10.266;2023-11-19T05:14:41;8.40;99.90
20594;DHT22;10455;48.732;10.266;2023-11-19T05:19:49;8.10;99.90
20594;DHT22;10455;48.732;10.266;2023-11-19T05:24:51;8.20;99.90
20594;DHT22;10455;48.732;10.266;2023-11-19T05:29:54;8.10;99.90
20594;DHT22;10455;48.732;10.266;2023-11-19T05:34:56;8.00;99.90
20594;DHT22;10455;48.732;10.266;2023-11-19T05:39:58;7.80;99.90
20594;DHT22;10455;48.732;10.266;2023-11-19T05:45:05;7.80;99.90
20594;DHT22;10455;48.732;10.266;2023-11-19T05:50:09;7.80;99.90
20594;DHT22;10455;48.732;10.266;2023-11-19T05:55:11;7.80;99.90
20594;DHT22;10455;48.732;10.266;2023-11-19T06:00:16;7.90;99.90
20594;DHT22;10455;48.732;10.266;2023-11-19T06:05:18;8.10;99.90
20594;DHT22;10455;48.732;10.266;2023-11-19T06:10:20;8.10;99.90
20594;DHT22;10455;48.732;10.266;2023-11-19T06:15:23;8.10;99.90
20594;DHT22;10455;48.732;10.266;2023-11-19T06:20:25;8.20;99.90
20594;DHT22;10455;48.732;10.266;2023-11-19T06:25:29;8.40;99.90
20594;DHT22;10455;48.732;10.266;2023-11-19T06:30:32;8.80;99.90
20594;DHT22;10455;48.732;10.266;2023-11-19T06:35:34;8.90;99.90
20594;DHT22;10455;48.732;10.266;2023-11-19T06:40:37;9.10;99.90
20594;DHT22;10455;48.732;10.266;2023-11-19T06:45:42;9.40;99.90
20594;DHT22;10455;48.732;10.266;2023-11-19T06:50:43;9.40;99.90
20594;DHT22;10455;48.732;10.266;2023-11-19T06:55:45;9.20;99.90
20594;DHT22;10455;48.732;10.266;2023-11-19T07:00:48;9.20;99.90
20594;DHT22;10455;48.732;10.266;2023-11-19T07:05:51;9.30;99.90
20594;DHT22;10455;48.732;10.266;2023-11-19T07:10:53;9.50;99.90
20594;DHT22;10455;48.732;10.266;2023-11-19T07:15:57;9.80;99.90
20594;DHT22;10455;48.732;10.266;2023-11-19T07:20:59;10.00;99.90
20594;DHT22;10455;48.732;10.266;2023-11-19T07:26:04;10.20;99.90
20594;DHT22;10455;48.732;10.266;2023-11-19T07:31:07;10.10;99.90
20594;DHT22;10455;48.732;10.266;2023-11-19T07:36:09;10.10;99.90
20594;DHT22;10455;48.732;10.266;2023-11-19T07:41:11;9.90;99.90
20594;DHT22;10455;48.732;10.266;2023-11-19T07:46:15;9.90;99.90
20594;DHT22;10455;48.732;10.266;2023-11-19T07:51:16;9.60;99.90
20594;DHT22;10455;48.732;10.266;2023-11-19T07:56:18;9.70;99.90
20594;DHT22;10455;48.732;10.266;2023-11-19T08:01:22;9.60;99.90
20594;DHT22;10455;48.732;10.266;2023-11-19T08:06:24;9.50;99.90
20594;DHT22;10455;48.732;10.266;2023-11-19T08:11:26;9.40;99.90
20594;DHT22;10455;48.732;10.266;2023-11-19T08:16:29;9.50;99.90
20594;DHT22;10455;48.732;10.266;2023-11-19T08:21:31;9.50;99.90
20594;DHT22;10455;48.732;10.266;2023-11-19T08:26:33;9.60;99.90
20594;DHT22;10455;48.732;10.266;2023-11-19T08:31:37;9.70;99.90
20594;DHT22;10455;48.732;10.266;2023-11-19T08:36:39;9.90;99.90
20594;DHT22;10455;48.732;10.266;2023-11-19T08:41:41;10.00;99.90
20594;DHT22;10455;48.732;10.266;2023-11-19T08:46:48;10.10;99.90
20594;DHT22;10455;48.732;10.266;2023-11-19T08:51:50;10.20;99.90
20594;DHT22;10455;48.732;10.266;2023-11-19T08:56:52;10.30;99.90
20594;DHT22;10455;48.732;10.266;2023-11-19T09:01:55;10.30;99.90
20594;DHT22;10455;48.732;10.266;2023-11-19T09:06:57;10.50;99.90
20594;DHT22;10455;48.732;10.266;2023-11-19T09:11:59;10.90;99.90
20594;DHT22;10455;48.732;10.266;2023-11-19T09:17:05;10.90;99.90
20594;DHT22;10455;48.732;10.266;2023-11-19T09:22:07;11.30;99.90
20594;DHT22;10455;48.732;10.266;2023-11-19T09:27:09;11.60;99.90
20594;DHT22;10455;48.732;10.266;2023-11-19T09:37:14;14.40;99.90
20594;DHT22;10455;48.732;10.266;2023-11-19T09:42:17;13.30;99.90
20594;DHT22;10455;48.732;10.266;2023-11-19T09:47:20;12.30;99.90
20594;DHT22;10455;48.732;10.266;2023-11-19T09:52:23;11.80;99.90
20594;DHT22;10455;48.732;10.266;2023-11-19T09:57:25;12.00;99.90
20594;DHT22;10455;48.732;10.266;2023-11-19T10:02:31;13.00;99.90
20594;DHT22;10455;48.732;10.266;2023-11-19T10:07:36;12.80;99.90
20594;DHT22;10455;48.732;10.266;2023-11-19T10:12:39;12.90;99.90
20594;DHT22;10455;48.732;10.266;2023-11-19T10:17:42;13.80;99.90
20594;DHT22;10455;48.732;10.266;2023-11-19T10:22:44;13.30;99.90
20594;DHT22;10455;48.732;10.266;2023-11-19T10:27:46;13.20;99.90
20594;DHT22;10455;48.732;10.266;2023-11-19T10:33:03;12.50;99.90
20594;DHT22;10455;48.732;10.266;2023-11-19T10:38:14;12.80;99.90
20594;DHT22;10455;48.732;10.266;2023-11-19T10:43:16;13.10;99.90
20594;DHT22;10455;48.732;10.266;2023-11-19T10:48:20;13.50;99.90
20594;DHT22;10455;48.732;10.266;2023-11-19T10:53:24;14.30;99.90
20594;DHT22;10455;48.732;10.266;2023-11-19T10:58:28;14.40;99.90
20594;DHT22;10455;48.732;10.266;2023-11-19T11:03:36;14.30;99.90
20594;DHT22;10455;48.732;10.266;2023-11-19T11:08:40;14.30;99.90
20594;DHT22;10455;48.732;10.266;2023-11-19T11:13:44;13.90;99.90
20594;DHT22;10455;48.732;10.266;2023-11-19T11:18:49;13.50;99.90
20594;DHT22;10455;48.732;10.266;2023-11-19T11:29:40;13.80;99.90
20594;DHT22;10455;48.732;10.266;2023-11-19T11:34:58;14.50;99.90
20594;DHT22;10455;48.732;10.266;2023-11-19T11:40:03;14.30;99.90
20594;DHT22;10455;48.732;10.266;2023-11-19T11:45:11;13.60;99.90
20594;DHT22;10455;48.732;10.266;2023-11-19T11:50:16;14.50;99.90
20594;DHT22;10455;48.732;10.266;2023-11-19T11:55:19;14.40;99.90
20594;DHT22;10455;48.732;10.266;2023-11-19T12:00:22;14.60;99.90
20594;DHT22;10455;48.732;10.266;2023-11-19T12:05:26;14.60;99.90
20594;DHT22;10455;48.732;10.266;2023-11-19T12:10:31;14.70;99.90
20594;DHT22;10455;48.732;10.266;2023-11-19T12:15:33;15.10;99.90
20594;DHT22;10455;48.732;10.266;2023-11-19T12:20:57;15.20;99.90
20594;DHT22;10455;48.732;10.266;2023-11-19T12:26:00;15.70;99.90
20594;DHT22;10455;48.732;10.266;2023-11-19T12:31:08;16.10;99.90
20594;DHT22;10455;48.732;10.266;2023-11-19T12:36:12;15.00;99.90
20594;DHT22;10455;48.732;10.266;2023-11-19T12:41:14;15.60;99.90
20594;DHT22;10455;48.732;10.266;2023-11-19T12:46:22;15.60;99.90
20594;DHT22;10455;48.732;10.266;2023-11-19T12:51:32;14.60;99.90
20594;DHT22;10455;48.732;10.266;2023-11-19T12:56:34;15.20;99.90
20594;DHT22;10455;48.732;10.266;2023-11-19T13:01:37;15.60;99.90
20594;DHT22;10455;48.732;10.266;2023-11-19T13:06:46;15.80;99.90
20594;DHT22;10455;48.732;10.266;2023-11-19T13:11:48;15.60;99.90
20594;DHT22;10455;48.732;10.266;2023-11-19T13:16:50;15.30;99.90
20594;DHT22;10455;48.732;10.266;2023-11-19T13:21:54;15.40;99.90
20594;DHT22;10455;48.732;10.266;2023-11-19T13:26:56;15.60;99.90
20594;DHT22;10455;48.732;10.266;2023-11-19T13:31:59;15.70;99.90
20594;DHT22;10455;48.732;10.266;2023-11-19T13:37:02;14.90;99.90
20594;DHT22;10455;48.732;10.266;2023-11-19T13:42:04;14.80;99.90
20594;DHT22;10455;48.732;10.266;2023-11-19T13:47:06;14.10;99.90
20594;DHT22;10455;48.732;10.266;2023-11-19T13:52:12;13.40;99.90
20594;DHT22;10455;48.732;10.266;2023-11-19T13:57:13;13.50;99.90
20594;DHT22;10455;48.732;10.266;2023-11-19T14:02:15;13.60;99.90
20594;DHT22;10455;48.732;10.266;2023-11-19T14:07:18;14.00;99.90
20594;DHT22;10455;48.732;10.266;2023-11-19T14:12:20;13.50;99.90
20594;DHT22;10455;48.732;10.266;2023-11-19T14:17:22;13.70;99.90
20594;DHT22;10455;48.732;10.266;2023-11-19T14:22:26;13.50;99.90
20594;DHT22;10455;48.732;10.266;2023-11-19T14:27:29;13.30;99.90
20594;DHT22;10455;48.732;10.266;2023-11-19T14:32:31;13.60;99.90
20594;DHT22;10455;48.732;10.266;2023-11-19T14:37:35;13.00;99.90
20594;DHT22;10455;48.732;10.266;2023-11-19T14:42:37;12.60;99.90
20594;DHT22;10455;48.732;10.266;2023-11-19T14:47:39;12.20;99.90
20594;DHT22;10455;48.732;10.266;2023-11-19T14:52:43;12.10;99.90
20594;DHT22;10455;48.732;10.266;2023-11-19T14:57:45;12.00;99.90
20594;DHT22;10455;48.732;10.266;2023-11-19T15:02:47;11.90;99.90
20594;DHT22;10455;48.732;10.266;2023-11-19T15:07:50;11.70;99.90
20594;DHT22;10455;48.732;10.266;2023-11-19T15:12:52;11.60;99.90
20594;DHT22;10455;48.732;10.266;2023-11-19T15:17:55;11.50;99.90
20594;DHT22;10455;48.732;10.266;2023-11-19T15:22:58;11.20;99.90
20594;DHT22;10455;48.732;10.266;2023-11-19T15:28:00;11.30;99.90
20594;DHT22;10455;48.732;10.266;2023-11-19T15:33:02;11.20;99.90
20594;DHT22;10455;48.732;10.266;2023-11-19T15:38:06;11.10;99.90
20594;DHT22;10455;48.732;10.266;2023-11-19T15:43:11;10.90;99.90
20594;DHT22;10455;48.732;10.266;2023-11-19T15:48:13;10.80;99.90
20594;DHT22;10455;48.732;10.266;2023-11-19T15:53:16;10.80;99.90
20594;DHT22;10455;48.732;10.266;2023-11-19T15:58:19;10.70;99.90
20594;DHT22;10455;48.732;10.266;2023-11-19T16:03:21;10.70;99.90
20594;DHT22;10455;48.732;10.266;2023-11-19T16:08:24;10.50;99.90
20594;DHT22;10455;48.732;10.266;2023-11-19T16:13:26;10.50;99.90
20594;DHT22;10455;48.732;10.266;2023-11-19T16:18:28;10.50;99.90
20594;DHT22;10455;48.732;10.266;2023-11-19T16:23:32;10.30;99.90
20594;DHT22;10455;48.732;10.266;2023-11-19T16:28:33;10.40;99.90
20594;DHT22;10455;48.732;10.266;2023-11-19T16:33:35;10.50;99.90
20594;DHT22;10455;48.732;10.266;2023-11-19T16:38:39;10.40;99.90
20594;DHT22;10455;48.732;10.266;2023-11-19T16:43:41;10.40;99.90
20594;DHT22;10455;48.732;10.266;2023-11-19T16:48:45;10.20;99.90
20594;DHT22;10455;48.732;10.266;2023-11-19T16:53:50;10.20;99.90
20594;DHT22;10455;48.732;10.266;2023-11-19T16:58:52;10.20;99.90
20594;DHT22;10455;48.732;10.266;2023-11-19T17:03:53;10.20;99.90
20594;DHT22;10455;48.732;10.266;2023-11-19T17:08:57;10.20;99.90
20594;DHT22;10455;48.732;10.266;2023-11-19T17:13:58;10.20;99.90
20594;DHT22;10455;48.732;10.266;2023-11-19T17:19:00;10.00;99.90
20594;DHT22;10455;48.732;10.266;2023-11-19T17:24:04;10.00;99.90
20594;DHT22;10455;48.732;10.266;2023-11-19T17:34:09;10.10;99.90
20594;DHT22;10455;48.732;10.266;2023-11-19T17:39:12;10.00;99.90
20594;DHT22;10455;48.732;10.266;2023-11-19T17:44:15;10.10;99.90
20594;DHT22;10455;48.732;10.266;2023-11-19T17:49:17;10.10;99.90
20594;DHT22;10455;48.732;10.266;2023-11-19T17:54:21;10.10;99.90
20594;DHT22;10455;48.732;10.266;2023-11-19T17:59:23;10.20;99.90
20594;DHT22;10455;48.732;10.266;2023-11-19T18:04:25;10.20;99.90
20594;DHT22;10455;48.732;10.266;2023-11-19T18:09:29;10.00;99.90
20594;DHT22;10455;48.732;10.266;2023-11-19T18:14:31;10.00;99.90
20594;DHT22;10455;48.732;10.266;2023-11-19T18:19:33;10.00;99.90
20594;DHT22;10455;48.732;10.266;2023-11-19T18:24:36;9.90;99.90
20594;DHT22;10455;48.732;10.266;2023-11-19T18:29:38;10.00;99.90
20594;DHT22;10455;48.732;10.266;2023-11-19T18:34:40;9.90;99.90
20594;DHT22;10455;48.732;10.266;2023-11-19T18:39:43;10.10;99.90
20594;DHT22;10455;48.732;10.266;2023-11-19T18:44:45;10.20;99.90
20594;DHT22;10455;48.732;10.266;2023-11-19T18:49:47;10.00;99.90
20594;DHT22;10455;48.732;10.266;2023-11-19T18:54:53;10.10;99.90
20594;DHT22;10455;48.732;10.266;2023-11-19T18:59:55;10.20;99.90
20594;DHT22;10455;48.732;10.266;2023-11-19T19:04:57;10.20;99.90
20594;DHT22;10455;48.732;10.266;2023-11-19T19:10:00;10.20;99.90
20594;DHT22;10455;48.732;10.266;2023-11-19T19:15:03;10.20;99.90
20594;DHT22;10455;48.732;10.266;2023-11-19T19:20:06;10.10;99.90
20594;DHT22;10455;48.732;10.266;2023-11-19T19:25:12;10.10;99.90
20594;DHT22;10455;48.732;10.266;2023-11-19T19:30:14;10.30;99.90
20594;DHT22;10455;48.732;10.266;2023-11-19T19:35:16;10.40;99.90
20594;DHT22;10455;48.732;10.266;2023-11-19T19:40:20;10.50;99.90
20594;DHT22;10455;48.732;10.266;2023-11-19T19:45:21;10.60;99.90
20594;DHT22;10455;48.732;10.266;2023-11-19T19:50:23;10.80;99.90
20594;DHT22;10455;48.732;10.266;2023-11-19T19:55:27;10.90;99.90
20594;DHT22;10455;48.732;10.266;2023-11-19T20:00:31;10.90;99.90
20594;DHT22;10455;48.732;10.266;2023-11-19T20:05:33;10.80;99.90
20594;DHT22;10455;48.732;10.266;2023-11-19T20:10:36;10.50;99.90
20594;DHT22;10455;48.732;10.266;2023-11-19T20:15:38;10.30;99.90
20594;DHT22;10455;48.732;10.266;2023-11-19T20:20:40;10.20;99.90
20594;DHT22;10455;48.732;10.266;2023-11-19T20:25:43;10.10;99.90
20594;DHT22;10455;48.732;10.266;2023-11-19T20:30:45;10.10;99.90
20594;DHT22;10455;48.732;10.266;2023-11-19T20:35:47;10.10;99.90
20594;DHT22;10455;48.732;10.266;2023-11-19T20:40:51;9.80;99.90
20594;DHT22;10455;48.732;10.266;2023-11-19T20:45:53;9.70;99.90
20594;DHT22;10455;48.732;10.266;2023-11-19T20:50:55;9.80;99.90
20594;DHT22;10455;48.732;10.266;2023-11-19T20:55:58;9.70;99.90
20594;DHT22;10455;48.732;10.266;2023-11-19T21:01:01;9.70;99.90
20594;DHT22;10455;48.732;10.266;2023-11-19T21:06:04;9.50;99.90
20594;DHT22;10455;48.732;10.266;2023-11-19T21:11:09;9.50;99.90
20594;DHT22;10455;48.732;10.266;2023-11-19T21:16:11;9.50;99.90
20594;DHT22;10455;48.732;10.266;2023-11-19T21:21:13;9.40;99.90
20594;DHT22;10455;48.732;10.266;2023-11-19T21:26:17;9.30;99.90
20594;DHT22;10455;48.732;10.266;2023-11-19T21:31:19;9.40;99.90
20594;DHT22;10455;48.732;10.266;2023-11-19T21:36:21;9.30;99.90
20594;DHT22;10455;48.732;10.266;2023-11-19T21:41:26;9.20;99.90
20594;DHT22;10455;48.732;10.266;2023-11-19T21:46:28;9.20;99.90
20594;DHT22;10455;48.732;10.266;2023-11-19T21:51:30;8.90;99.90
20594;DHT22;10455;48.732;10.266;2023-11-19T21:56:33;8.80;99.90
20594;DHT22;10455;48.732;10.266;2023-11-19T22:01:35;8.90;99.90
20594;DHT22;10455;48.732;10.266;2023-11-19T22:06:37;8.90;99.90
20594;DHT22;10455;48.732;10.266;2023-11-19T22:11:40;8.90;99.90
20594;DHT22;10455;48.732;10.266;2023-11-19T22:16:42;8.60;99.90
20594;DHT22;10455;48.732;10.266;2023-11-19T22:21:45;8.60;99.90
20594;DHT22;10455;48.732;10.266;2023-11-19T22:26:49;8.40;99.90
20594;DHT22;10455;48.732;10.266;2023-11-19T22:31:50;8.60;99.90
20594;DHT22;10455;48.732;10.266;2023-11-19T22:36:52;8.60;99.90
20594;DHT22;10455;48.732;10.266;2023-11-19T22:41:56;8.40;99.90
20594;DHT22;10455;48.732;10.266;2023-11-19T22:46:59;8.40;99.90
20594;DHT22;10455;48.732;10.266;2023-11-19T22:52:01;8.30;99.90
20594;DHT22;10455;48.732;10.266;2023-11-19T22:57:05;8.20;99.90
20594;DHT22;10455;48.732;10.266;2023-11-19T23:02:07;8.10;99.90
20594;DHT22;10455;48.732;10.266;2023-11-19T23:07:09;8.10;99.90
20594;DHT22;10455;48.732;10.266;2023-11-19T23:12:12;8.00;99.90
20594;DHT22;10455;48.732;10.266;2023-11-19T23:17:16;7.90;99.90
20594;DHT22;10455;48.732;10.266;2023-11-19T23:22:18;7.90;99.90
20594;DHT22;10455;48.732;10.266;2023-11-19T23:27:22;7.90;99.90
20594;DHT22;10455;48.732;10.266;2023-11-19T23:32:24;7.90;99.90
20594;DHT22;10455;48.732;10.266;2023-11-19T23:37:26;7.90;99.90
20594;DHT22;10455;48.732;10.266;2023-11-19T23:42:29;8.10;99.90
20594;DHT22;10455;48.732;10.266;2023-11-19T23:47:31;8.10;99.90
20594;DHT22;10455;48.732;10.266;2023-11-19T23:52:33;8.20;99.90
20594;DHT22;10455;48.732;10.266;2023-11-19T23:57:36;8.20;99.90
